Apiai, Brazil
Current Conditions -  °F | °C
As of 4:00 PM on Tuesday 21 Oct 2014 (Local Time) from SBBI Reporting Station
Broken Clouds Broken Clouds  
Wind Chill: 63°   Ceiling: 1500
Heat Index: 63°   Visibility: 6mi
Dew Point: 54°   Wind: 9mph
Humidity: 72%   Direction: 70°ENE
Pressure: 30.21"   Gusts: NA
Location:  24.51°S, 48.84°W
Report Text: SBBI 211800Z 07008KT 9999 FEW013 BKN015 BKN030 17/12 Q1023
Loading
Personal Weather Stations






























Interactive Weather Map
Tropical Storm Tracking
New forecast layout! Learn more

10-Day Weather Forecast

Advertisements
Track Severe Weather on mobile